createdAt,value
2019-06-10T00:02:10.898Z,15.50
2019-06-10T00:04:41.537Z,15.60
2019-06-10T00:07:11.813Z,15.60
2019-06-10T00:09:41.649Z,15.60
2019-06-10T00:12:12.770Z,15.50
2019-06-10T00:14:43.267Z,15.60
2019-06-10T00:17:12.628Z,15.50
2019-06-10T00:19:43.609Z,15.50
2019-06-10T00:22:13.048Z,15.50
2019-06-10T00:24:42.403Z,15.60
2019-06-10T00:27:12.090Z,15.50
2019-06-10T00:29:41.601Z,15.50
2019-06-10T00:32:13.227Z,15.50
2019-06-10T00:34:42.127Z,15.50
2019-06-10T00:37:14.743Z,15.40
2019-06-10T00:39:45.708Z,15.30
2019-06-10T00:42:15.530Z,15.30
2019-06-10T00:44:44.985Z,15.30
2019-06-10T00:47:15.221Z,15.20
2019-06-10T00:49:45.985Z,15.20
2019-06-10T00:52:15.334Z,15.10
2019-06-10T00:54:44.818Z,15.10
2019-06-10T00:57:15.310Z,15.10
2019-06-10T00:59:44.658Z,15.00
2019-06-10T01:02:14.618Z,15.00
2019-06-10T01:04:46.079Z,15.00
2019-06-10T01:07:15.447Z,14.90
2019-06-10T01:09:44.894Z,14.90
2019-06-10T01:12:14.966Z,14.90
2019-06-10T01:14:44.572Z,14.90
2019-06-10T01:17:15.855Z,14.90
2019-06-10T01:19:45.354Z,14.80
2019-06-10T01:22:17.384Z,14.70
2019-06-10T01:24:46.923Z,14.70
2019-06-10T01:27:16.304Z,14.70
2019-06-10T01:29:45.738Z,14.70
2019-06-10T01:32:15.184Z,14.70
2019-06-10T01:34:44.620Z,14.80
2019-06-10T01:37:14.756Z,14.90
2019-06-10T01:39:45.056Z,14.90
2019-06-10T01:42:15.572Z,14.90
2019-06-10T01:44:47.080Z,14.90
2019-06-10T01:47:17.564Z,14.80
2019-06-10T01:49:47.281Z,14.80
2019-06-10T01:52:18.406Z,14.70
2019-06-10T01:54:48.011Z,14.90
2019-06-10T01:57:18.646Z,14.80
2019-06-10T01:59:50.724Z,14.70
2019-06-10T02:02:23.651Z,14.70
2019-06-10T02:04:52.135Z,14.70
2019-06-10T02:07:23.119Z,14.70
2019-06-10T02:09:52.790Z,14.70
2019-06-10T02:12:24.170Z,14.70
2019-06-10T02:14:53.279Z,14.70
2019-06-10T02:17:24.139Z,14.70
2019-06-10T02:19:53.804Z,14.60
2019-06-10T02:22:24.336Z,14.50
2019-06-10T02:24:54.107Z,14.40
2019-06-10T02:27:23.618Z,14.40
2019-06-10T02:29:53.038Z,14.50
2019-06-10T02:32:31.339Z,14.50
2019-06-10T02:35:08.062Z,14.50
2019-06-10T02:37:31.928Z,14.50
2019-06-10T02:39:55.612Z,14.50
2019-06-10T02:42:30.318Z,14.40
2019-06-10T02:44:57.673Z,14.40
2019-06-10T02:47:33.473Z,14.50
2019-06-10T02:50:06.102Z,14.50
2019-06-10T02:52:37.238Z,14.40
2019-06-10T02:55:04.141Z,14.50
2019-06-10T02:57:39.825Z,14.50
2019-06-10T03:00:19.931Z,14.50
2019-06-10T03:02:45.200Z,14.50
2019-06-10T03:05:14.270Z,14.30
2019-06-10T03:07:44.649Z,14.40
2019-06-10T03:10:16.057Z,14.30
2019-06-10T03:12:45.662Z,14.30
2019-06-10T03:15:15.743Z,14.30
2019-06-10T03:17:45.350Z,14.30
2019-06-10T03:20:15.884Z,14.30
2019-06-10T03:22:45.525Z,14.40
2019-06-10T03:25:16.167Z,14.40
2019-06-10T03:27:45.866Z,14.40
2019-06-10T03:30:22.054Z,14.30
2019-06-10T03:32:47.507Z,14.30
2019-06-10T03:35:19.269Z,14.30
2019-06-10T03:37:48.865Z,14.40
2019-06-10T03:40:18.515Z,14.30
2019-06-10T03:42:48.025Z,14.30
2019-06-10T03:45:19.040Z,14.30
2019-06-10T03:47:48.557Z,14.30
2019-06-10T03:50:19.221Z,14.30
2019-06-10T03:52:48.794Z,14.20
2019-06-10T03:55:19.302Z,14.30
2019-06-10T03:57:48.765Z,14.30
2019-06-10T04:00:19.492Z,14.30
2019-06-10T04:02:48.943Z,14.40
2019-06-10T04:05:19.432Z,14.30
2019-06-10T04:07:49.018Z,14.30
2019-06-10T04:10:19.549Z,14.30
2019-06-10T04:12:49.163Z,14.30
2019-06-10T04:15:19.725Z,14.30
2019-06-10T04:17:49.218Z,14.20
2019-06-10T04:20:19.744Z,14.20
2019-06-10T04:22:49.257Z,14.20
2019-06-10T04:25:19.823Z,14.20
2019-06-10T04:27:49.365Z,14.20
2019-06-10T04:30:20.085Z,14.30
2019-06-10T04:32:49.691Z,14.30
2019-06-10T04:35:20.299Z,14.30
2019-06-10T04:37:52.036Z,14.40
2019-06-10T04:40:23.571Z,14.70
2019-06-10T04:42:52.622Z,14.80
2019-06-10T04:45:23.597Z,15.00
2019-06-10T04:47:53.151Z,15.00
2019-06-10T04:50:33.088Z,15.10
2019-06-10T04:52:56.594Z,15.20
2019-06-10T04:55:26.521Z,15.10
2019-06-10T04:57:57.100Z,15.50
2019-06-10T05:00:27.639Z,16.00
2019-06-10T05:02:57.757Z,16.60
2019-06-10T05:05:28.471Z,16.60
2019-06-10T05:07:58.245Z,16.60
2019-06-10T05:10:28.366Z,16.80
2019-06-10T05:12:58.788Z,17.40
2019-06-10T05:15:31.238Z,17.80
2019-06-10T05:17:59.272Z,17.60
2019-06-10T05:20:48.951Z,18.00
2019-06-10T05:23:02.152Z,18.40
2019-06-10T05:25:32.754Z,18.20
2019-06-10T05:28:02.891Z,18.10
2019-06-10T05:30:34.039Z,18.70
2019-06-10T05:33:04.699Z,18.90
2019-06-10T05:35:34.115Z,18.90
2019-06-10T05:38:03.670Z,18.70
2019-06-10T05:40:34.234Z,18.20
2019-06-10T05:43:04.642Z,18.00
2019-06-10T05:45:35.110Z,18.20
2019-06-10T05:48:07.260Z,19.00
2019-06-10T05:50:39.174Z,19.80
2019-06-10T05:53:07.752Z,21.20
2019-06-10T05:55:37.016Z,19.80
2019-06-10T05:58:06.597Z,19.20
2019-06-10T06:00:35.976Z,18.90
2019-06-10T06:03:08.103Z,18.50
2019-06-10T06:05:38.087Z,18.00
2019-06-10T06:08:08.872Z,17.80
2019-06-10T06:10:38.715Z,17.90
2019-06-10T06:13:08.082Z,17.80
2019-06-10T06:15:38.042Z,17.90
2019-06-10T06:18:10.706Z,18.20
2019-06-10T06:20:38.124Z,19.20
2019-06-10T06:23:09.366Z,19.00
2019-06-10T06:25:42.941Z,19.60
2019-06-10T06:28:13.676Z,22.00
2019-06-10T06:30:43.729Z,22.80
2019-06-10T06:33:13.816Z,22.90
2019-06-10T06:35:46.370Z,24.10
2019-06-10T06:38:14.538Z,23.80
2019-06-10T06:40:43.887Z,23.60
2019-06-10T06:43:13.228Z,22.70
2019-06-10T06:45:42.830Z,20.70
2019-06-10T06:48:12.453Z,20.80
2019-06-10T06:51:00.154Z,22.70
2019-06-10T06:53:25.765Z,23.00
2019-06-10T06:55:43.579Z,24.30
2019-06-10T06:58:16.029Z,24.60
2019-06-10T07:01:00.600Z,24.50
2019-06-10T07:03:16.523Z,24.70
2019-06-10T07:05:46.526Z,26.20
2019-06-10T07:08:17.086Z,25.50
2019-06-10T07:10:46.789Z,26.10
2019-06-10T07:13:16.062Z,25.70
2019-06-10T07:15:47.821Z,25.50
2019-06-10T07:18:17.458Z,26.20
2019-06-10T07:20:46.873Z,27.00
2019-06-10T07:23:16.384Z,26.60
2019-06-10T07:25:47.440Z,26.80
2019-06-10T07:28:16.796Z,27.00
2019-06-10T07:30:51.464Z,26.90
2019-06-10T07:33:17.498Z,27.60
2019-06-10T07:35:52.336Z,27.80
2019-06-10T07:38:23.045Z,27.70
2019-06-10T07:40:53.007Z,27.20
2019-06-10T07:43:23.739Z,27.00
2019-06-10T07:45:53.472Z,27.00
2019-06-10T07:48:23.201Z,26.70
2019-06-10T07:50:53.238Z,27.20
2019-06-10T07:53:22.640Z,27.20
2019-06-10T07:55:53.533Z,26.90
2019-06-10T07:58:23.080Z,27.80
2019-06-10T08:00:53.573Z,28.30
2019-06-10T08:03:23.192Z,27.70
2019-06-10T08:05:52.760Z,27.10
2019-06-10T08:08:23.455Z,26.60
2019-06-10T08:10:54.470Z,28.10
2019-06-10T08:13:24.020Z,27.90
2019-06-10T08:15:53.617Z,27.40
2019-06-10T08:18:22.965Z,27.70
2019-06-10T08:20:52.875Z,26.60
2019-06-10T08:23:23.568Z,26.30
2019-06-10T08:25:57.349Z,25.70
2019-06-10T08:28:24.572Z,26.10
2019-06-10T08:30:55.621Z,24.90
2019-06-10T08:33:25.074Z,25.20
2019-06-10T08:35:59.362Z,25.10
2019-06-10T08:38:25.608Z,25.40
2019-06-10T08:40:56.440Z,24.80
2019-06-10T08:43:26.006Z,23.90
2019-06-10T08:45:55.471Z,23.80
2019-06-10T08:48:24.827Z,23.90
2019-06-10T08:50:54.414Z,23.40
2019-06-10T08:53:24.253Z,23.60
2019-06-10T08:55:53.924Z,23.10
2019-06-10T08:58:27.524Z,23.50
2019-06-10T09:00:57.114Z,24.10
2019-06-10T09:03:29.331Z,25.20
2019-06-10T09:05:58.719Z,25.80
2019-06-10T09:08:32.555Z,25.40
2019-06-10T09:11:04.060Z,25.20
2019-06-10T09:13:35.308Z,25.00
2019-06-10T09:16:15.499Z,25.30
2019-06-10T09:18:36.752Z,26.00
2019-06-10T09:21:12.802Z,26.20
2019-06-10T09:23:43.513Z,27.30
2019-06-10T09:26:12.783Z,27.10
2019-06-10T09:28:47.171Z,27.60
2019-06-10T09:31:14.815Z,27.90
2019-06-10T09:33:49.912Z,27.30
2019-06-10T09:36:15.332Z,27.60
2019-06-10T09:38:47.341Z,27.30
2019-06-10T09:41:15.903Z,26.70
2019-06-10T09:43:50.049Z,26.50
2019-06-10T09:46:17.257Z,26.40
2019-06-10T09:48:50.298Z,27.30
2019-06-10T09:51:19.287Z,26.70
2019-06-10T09:53:56.020Z,27.00
2019-06-10T09:56:19.703Z,27.10
2019-06-10T09:58:50.613Z,27.20
2019-06-10T10:01:23.873Z,26.90
2019-06-10T10:03:59.399Z,26.80
2019-06-10T10:06:24.011Z,26.60
2019-06-10T10:08:58.350Z,27.00
2019-06-10T10:11:28.471Z,26.50
2019-06-10T10:13:57.375Z,28.00
2019-06-10T10:16:26.939Z,28.10
2019-06-10T10:19:00.176Z,28.00
2019-06-10T10:21:27.446Z,27.70
2019-06-10T10:24:07.012Z,26.90
2019-06-10T10:26:28.202Z,27.50
2019-06-10T10:28:59.111Z,28.00
2019-06-10T10:31:28.548Z,28.50
2019-06-10T10:33:57.990Z,27.90
2019-06-10T10:36:28.866Z,28.50
2019-06-10T10:38:58.282Z,28.50
2019-06-10T10:41:27.666Z,28.70
2019-06-10T10:43:58.508Z,27.90
2019-06-10T10:46:32.672Z,27.60
2019-06-10T10:49:02.733Z,27.60
2019-06-10T10:51:32.685Z,27.20
2019-06-10T10:54:20.818Z,27.80
2019-06-10T10:56:33.916Z,27.90
2019-06-10T10:59:06.009Z,27.70
2019-06-10T11:01:35.715Z,27.80
2019-06-10T11:04:06.241Z,27.60
2019-06-10T11:06:35.641Z,27.70
2019-06-10T11:09:08.899Z,27.60
2019-06-10T11:11:43.065Z,28.20
2019-06-10T11:14:14.912Z,28.20
2019-06-10T11:16:45.246Z,28.10
2019-06-10T11:19:14.904Z,27.80
2019-06-10T11:21:45.225Z,27.30
2019-06-10T11:24:32.475Z,27.50
2019-06-10T11:26:45.891Z,27.30
2019-06-10T11:29:15.240Z,26.40
2019-06-10T11:31:46.321Z,26.70
2019-06-10T11:34:15.827Z,27.30
2019-06-10T11:36:46.249Z,26.60
2019-06-10T11:39:15.878Z,27.70
2019-06-10T11:41:45.910Z,26.90
2019-06-10T11:44:15.296Z,26.90
2019-06-10T11:46:44.672Z,26.60
2019-06-10T11:49:14.043Z,26.20
2019-06-10T11:51:45.538Z,26.30
2019-06-10T11:54:14.923Z,25.80
2019-06-10T11:56:44.344Z,26.20
2019-06-10T11:59:13.708Z,25.80
2019-06-10T12:01:43.130Z,26.10
2019-06-10T12:04:13.005Z,26.00
2019-06-10T12:06:42.727Z,26.50
2019-06-10T12:09:13.730Z,27.00
2019-06-10T12:11:44.003Z,26.80
2019-06-10T12:14:13.543Z,26.60
2019-06-10T12:19:14.047Z,26.10
2019-06-10T12:21:43.605Z,26.60
2019-06-10T12:24:13.134Z,26.20
2019-06-10T12:26:43.559Z,26.20
2019-06-10T12:29:13.056Z,25.70
2019-06-10T12:31:42.942Z,25.90
2019-06-10T12:34:12.656Z,25.90
2019-06-10T12:36:42.338Z,26.10
2019-06-10T12:39:15.330Z,26.10
2019-06-10T12:41:43.185Z,26.60
2019-06-10T12:44:15.303Z,27.10
2019-06-10T12:46:44.686Z,27.60
2019-06-10T12:49:18.113Z,27.80
2019-06-10T12:51:44.415Z,27.40
2019-06-10T12:54:13.814Z,28.20
2019-06-10T12:56:43.397Z,27.70
2019-06-10T12:59:13.542Z,27.10
2019-06-10T13:01:44.745Z,26.90
2019-06-10T13:04:14.482Z,27.30
2019-06-10T13:06:46.085Z,27.10
2019-06-10T13:09:16.683Z,27.60
2019-06-10T13:11:46.160Z,27.90
2019-06-10T13:14:18.250Z,28.00
2019-06-10T13:16:46.689Z,28.10
2019-06-10T13:19:16.052Z,27.90
2019-06-10T13:21:45.420Z,27.70
2019-06-10T13:24:14.848Z,27.70
2019-06-10T13:26:44.397Z,27.80
2019-06-10T13:29:17.450Z,27.80
2019-06-10T13:31:44.879Z,27.20
2019-06-10T13:34:14.766Z,27.00
2019-06-10T13:36:44.355Z,26.50
2019-06-10T13:39:13.767Z,26.90
2019-06-10T13:41:44.732Z,27.20
2019-06-10T13:44:16.623Z,27.20
2019-06-10T13:46:44.389Z,26.80
2019-06-10T13:49:16.866Z,26.70
2019-06-10T13:51:46.271Z,26.90
2019-06-10T13:54:15.641Z,26.50
2019-06-10T13:56:47.819Z,26.60
2019-06-10T13:59:17.419Z,26.50
2019-06-10T14:01:46.890Z,26.50
2019-06-10T14:04:21.742Z,26.70
2019-06-10T14:06:50.562Z,26.50
2019-06-10T14:09:18.654Z,26.60
2019-06-10T14:11:47.992Z,27.10
2019-06-10T14:14:19.869Z,27.70
2019-06-10T14:16:54.033Z,27.40
2019-06-10T14:19:24.014Z,27.50
2019-06-10T14:21:53.443Z,27.40
2019-06-10T14:24:23.041Z,28.10
2019-06-10T14:26:53.225Z,28.20
2019-06-10T14:29:22.767Z,28.50
2019-06-10T14:31:53.243Z,29.10
2019-06-10T14:34:25.894Z,29.50
2019-06-10T14:36:55.244Z,29.60
2019-06-10T14:39:24.592Z,29.30
2019-06-10T14:41:53.958Z,28.40
2019-06-10T14:44:23.592Z,28.30
2019-06-10T14:46:53.156Z,27.90
2019-06-10T14:49:24.257Z,27.80
2019-06-10T14:51:54.644Z,27.40
2019-06-10T14:54:24.081Z,27.20
2019-06-10T14:56:57.391Z,26.80
2019-06-10T14:59:26.240Z,26.40
2019-06-10T15:01:55.598Z,26.00
2019-06-10T15:04:25.044Z,25.90
2019-06-10T15:06:54.514Z,25.80
2019-06-10T15:09:23.936Z,26.20
2019-06-10T15:11:53.601Z,25.90
2019-06-10T15:14:23.444Z,25.90
2019-06-10T15:16:53.925Z,25.60
2019-06-10T15:19:28.714Z,25.50
2019-06-10T15:21:53.569Z,25.20
2019-06-10T15:24:23.744Z,24.30
2019-06-10T15:27:08.982Z,23.30
2019-06-10T15:29:25.568Z,23.20
2019-06-10T15:32:08.815Z,22.50
2019-06-10T15:34:26.373Z,22.10
2019-06-10T15:36:56.124Z,21.20
2019-06-10T15:39:25.812Z,20.70
2019-06-10T15:42:04.309Z,20.20
2019-06-10T15:44:48.198Z,21.00
2019-06-10T15:47:07.999Z,21.00
2019-06-10T15:49:37.432Z,21.40
2019-06-10T15:52:06.882Z,21.30
2019-06-10T15:54:37.283Z,21.40
2019-06-10T15:57:21.620Z,21.50
2019-06-10T15:59:42.786Z,21.30
2019-06-10T16:02:16.113Z,20.30
2019-06-10T16:04:43.385Z,20.70
2019-06-10T16:07:15.969Z,21.10
2019-06-10T16:09:43.921Z,21.20
2019-06-10T16:12:15.015Z,21.40
2019-06-10T16:14:44.688Z,21.60
2019-06-10T16:17:17.396Z,21.50
2019-06-10T16:19:47.367Z,21.20
2019-06-10T16:22:17.414Z,21.20
2019-06-10T16:24:47.271Z,21.30
2019-06-10T16:27:17.857Z,21.00
2019-06-10T16:29:47.338Z,21.20
2019-06-10T16:32:34.717Z,21.40
2019-06-10T16:37:37.973Z,21.90
2019-06-10T16:40:15.182Z,21.80
2019-06-10T16:42:46.258Z,21.90
2019-06-10T16:45:17.613Z,21.80
2019-06-10T16:47:46.851Z,21.50
2019-06-10T16:50:17.234Z,21.50
2019-06-10T16:52:46.778Z,21.30
2019-06-10T16:55:17.516Z,21.40
2019-06-10T16:57:58.799Z,21.20
2019-06-10T17:00:18.628Z,20.80
2019-06-10T17:02:48.100Z,21.10
2019-06-10T17:05:23.701Z,21.00
2019-06-10T17:07:52.674Z,21.10
2019-06-10T17:10:22.452Z,21.30
2019-06-10T17:13:03.699Z,21.40
2019-06-10T17:15:33.127Z,21.40
2019-06-10T17:18:02.933Z,21.70
2019-06-10T17:20:34.542Z,21.70
2019-06-10T17:23:26.384Z,21.50
2019-06-10T17:25:57.846Z,21.70
2019-06-10T17:28:31.689Z,21.70
2019-06-10T17:30:58.896Z,21.70
2019-06-10T17:33:29.951Z,21.40
2019-06-10T17:36:03.335Z,21.40
2019-06-10T17:38:32.221Z,21.20
2019-06-10T17:41:04.128Z,21.20
2019-06-10T17:43:34.414Z,21.30
2019-06-10T17:46:04.662Z,21.30
2019-06-10T17:48:34.104Z,21.20
2019-06-10T17:51:03.510Z,20.80
2019-06-10T17:53:34.968Z,21.00
2019-06-10T17:56:04.204Z,20.80
2019-06-10T17:58:50.224Z,20.80
2019-06-10T18:01:07.706Z,20.60
2019-06-10T18:03:39.976Z,20.70
2019-06-10T18:06:09.242Z,20.80
2019-06-10T18:08:40.700Z,20.90
2019-06-10T18:11:12.503Z,20.80
2019-06-10T18:13:42.813Z,20.50
2019-06-10T18:16:13.953Z,20.70
2019-06-10T18:18:43.415Z,20.60
2019-06-10T18:21:15.333Z,20.70
2019-06-10T18:23:44.823Z,20.70
2019-06-10T18:26:14.279Z,20.50
2019-06-10T18:29:00.951Z,20.40
2019-06-10T18:31:18.355Z,20.50
2019-06-10T18:33:53.091Z,20.30
2019-06-10T18:36:24.451Z,20.20
2019-06-10T18:38:53.276Z,20.20
2019-06-10T18:41:22.813Z,20.20
2019-06-10T18:43:53.977Z,19.70
2019-06-10T18:46:23.382Z,18.90
2019-06-10T18:48:53.646Z,18.60
2019-06-10T18:51:23.246Z,18.40
2019-06-10T18:53:52.750Z,17.90
2019-06-10T18:56:23.183Z,17.60
2019-06-10T18:58:55.976Z,17.50
2019-06-10T19:01:25.429Z,17.50
2019-06-10T19:03:54.809Z,17.30
2019-06-10T19:06:25.290Z,17.00
2019-06-10T19:08:54.709Z,16.60
2019-06-10T19:11:24.100Z,16.70
2019-06-10T19:13:53.554Z,16.80
2019-06-10T19:16:24.038Z,17.00
2019-06-10T19:19:02.736Z,17.10
2019-06-10T19:21:32.470Z,16.70
2019-06-10T19:24:03.237Z,16.70
2019-06-10T19:26:38.375Z,16.50
2019-06-10T19:29:07.997Z,16.90
2019-06-10T19:31:39.763Z,17.00
2019-06-10T19:34:13.070Z,17.10
2019-06-10T19:36:40.098Z,17.20
2019-06-10T19:39:09.573Z,16.80
2019-06-10T19:41:41.111Z,16.90
2019-06-10T19:44:10.274Z,17.10
2019-06-10T19:46:39.755Z,17.10
2019-06-10T19:49:09.273Z,17.30
2019-06-10T19:51:41.643Z,17.30
2019-06-10T19:54:12.822Z,17.30
2019-06-10T19:56:43.729Z,17.20
2019-06-10T19:59:14.322Z,17.10
2019-06-10T20:01:46.627Z,17.00
2019-06-10T20:04:18.037Z,16.70
2019-06-10T20:06:50.686Z,16.60
2019-06-10T20:09:23.595Z,16.80
2019-06-10T20:11:53.373Z,16.70
2019-06-10T20:14:24.145Z,16.60
2019-06-10T20:16:53.720Z,16.70
2019-06-10T20:19:24.849Z,16.40
2019-06-10T20:21:56.193Z,16.50
2019-06-10T20:24:25.344Z,16.60
2019-06-10T20:26:59.176Z,16.80
2019-06-10T20:29:30.208Z,16.90
2019-06-10T20:31:59.650Z,16.90
2019-06-10T20:34:29.095Z,16.90
2019-06-10T20:37:04.309Z,16.90
2019-06-10T20:42:50.830Z,16.90
2019-06-10T20:45:22.924Z,17.00
2019-06-10T20:47:53.514Z,17.00
2019-06-10T20:50:25.730Z,17.00
2019-06-10T20:53:10.710Z,16.90
2019-06-10T20:55:39.995Z,16.90
2019-06-10T20:58:03.505Z,17.00
2019-06-10T21:00:41.915Z,17.10
2019-06-10T21:03:11.593Z,17.10
2019-06-10T21:05:43.715Z,17.10
2019-06-10T21:08:13.584Z,17.10
2019-06-10T21:10:46.310Z,17.10
2019-06-10T21:13:14.185Z,17.10
2019-06-10T21:15:47.463Z,17.10
2019-06-10T21:18:22.405Z,17.00
2019-06-10T21:20:55.968Z,17.00
2019-06-10T21:23:23.380Z,17.00
2019-06-10T21:25:56.845Z,16.80
2019-06-10T21:28:27.932Z,16.70
2019-06-10T21:30:59.106Z,16.50
2019-06-10T21:33:28.737Z,16.50
2019-06-10T21:36:03.556Z,16.50
2019-06-10T21:38:32.257Z,16.60
2019-06-10T21:41:03.355Z,16.40
2019-06-10T21:43:33.254Z,16.40
2019-06-10T21:46:03.621Z,16.50
2019-06-10T21:48:33.626Z,16.40
2019-06-10T21:51:03.081Z,16.50
2019-06-10T21:53:32.717Z,16.50
2019-06-10T21:56:02.079Z,16.50
2019-06-10T21:58:32.804Z,16.60
2019-06-10T22:01:12.057Z,16.60
2019-06-10T22:03:33.641Z,16.70
2019-06-10T22:06:03.020Z,16.60
2019-06-10T22:08:33.399Z,16.60
2019-06-10T22:11:03.177Z,16.60
2019-06-10T22:13:32.887Z,16.60
2019-06-10T22:16:03.295Z,16.60
2019-06-10T22:18:33.326Z,16.60
2019-06-10T22:21:02.989Z,16.60
2019-06-10T22:23:33.188Z,16.70
2019-06-10T22:26:02.902Z,16.50
2019-06-10T22:28:33.464Z,16.50
2019-06-10T22:31:18.046Z,16.60
2019-06-10T22:33:33.878Z,16.70
2019-06-10T22:36:03.362Z,16.70
2019-06-10T22:38:32.957Z,16.70
2019-06-10T22:41:03.135Z,16.30
2019-06-10T22:43:33.822Z,16.40
2019-06-10T22:46:03.998Z,16.60
2019-06-10T22:48:33.615Z,16.80
2019-06-10T22:51:03.101Z,16.80
2019-06-10T22:53:33.379Z,16.60
2019-06-10T22:56:03.387Z,16.70
2019-06-10T22:58:32.743Z,16.50
2019-06-10T23:01:04.233Z,16.50
2019-06-10T23:03:33.158Z,16.40
2019-06-10T23:06:02.731Z,16.60
2019-06-10T23:08:33.387Z,16.60
2019-06-10T23:11:03.147Z,16.50
2019-06-10T23:13:33.810Z,16.50
2019-06-10T23:16:03.240Z,16.60
2019-06-10T23:18:32.622Z,16.70
2019-06-10T23:21:05.191Z,16.60
2019-06-10T23:23:34.656Z,16.40
2019-06-10T23:26:04.161Z,16.50
2019-06-10T23:28:33.536Z,16.60
2019-06-10T23:31:05.397Z,16.70
2019-06-10T23:33:33.956Z,16.70
2019-06-10T23:36:04.391Z,16.60
2019-06-10T23:38:33.842Z,16.50
2019-06-10T23:41:03.749Z,16.50
2019-06-10T23:43:33.838Z,16.60
2019-06-10T23:46:04.303Z,16.40
2019-06-10T23:48:34.426Z,16.40
2019-06-10T23:51:05.077Z,16.40
2019-06-10T23:53:34.856Z,16.20
2019-06-10T23:56:05.553Z,16.10
2019-06-10T23:58:38.441Z,16.10
